Accueil
METAR-TAF:

METAR-TAF

Aéroports :

Elim, Alaska, États-Unis

latitude: 64-36-54N, longitude: 162-16-14W, altitude: 49 m

Observation

Le bulletin a été fait il y a 7 heures et 4 minutes, à 12:56 UTC
Vent 21 kt de sud avec des rafales jusqu'à 28 kt
Température 11°C
Humidité 87%
Pression 996 hPa
Visibilité: 16.1 km
Ciel couvert à une hauteur de 1400 ft

METAR: PFEL 131256Z AUTO 17021G28KT 10SM OVC014 11/09 A2940 RMK AO2 PK WND 17028/1256 RAE10B38E51 SLP956 T01060089 PNO $

Heure: 12:00 (20:00 UTC)


TAF: absent

Observations et prévisions météorologiques de plus de 4000 aéroports (messages METAR et TAF).

Les stations disponibles sont représentées par des disques jaunes et rouges sur la carte.

Passer la souris dessus pour voir le nom de la station.

Cliquer dessus pour voir les observations et prévisions météorologiques.

Pour changer de carte: cliquez sur les boutons verts avec une croix noire pour zoomer, sur le bouton vert avec un tiret pour effectuer un zoom arrière, ou sur les flèches vertes pour les cartes adjacentes.


METAR-TAF: